createdAt,value
2018-06-21T00:00:08.904Z,1012.79
2018-06-21T00:01:08.654Z,1012.77
2018-06-21T00:02:08.635Z,1012.76
2018-06-21T00:03:08.503Z,1012.75
2018-06-21T00:04:08.568Z,1012.73
2018-06-21T00:05:08.339Z,1012.76
2018-06-21T00:06:08.399Z,1012.68
2018-06-21T00:07:08.211Z,1012.72
2018-06-21T00:08:08.172Z,1012.66
2018-06-21T00:09:08.033Z,1012.66
2018-06-21T00:10:08.076Z,1012.66
2018-06-21T00:11:07.909Z,1012.67
2018-06-21T00:12:07.880Z,1012.60
2018-06-21T00:13:07.734Z,1012.60
2018-06-21T00:14:07.694Z,1012.58
2018-06-21T00:15:07.577Z,1012.56
2018-06-21T00:16:08.460Z,1012.48
2018-06-21T00:17:07.428Z,1012.49
2018-06-21T00:28:30.970Z,1012.48
2018-06-21T00:31:12.738Z,1012.48
2018-06-21T00:32:12.759Z,1012.49
2018-06-21T00:33:12.586Z,1012.47
2018-06-21T00:34:12.518Z,1012.50
2018-06-21T00:35:12.428Z,1012.48
2018-06-21T00:36:12.447Z,1012.51
2018-06-21T00:37:12.300Z,1012.49
2018-06-21T00:38:12.250Z,1012.48
2018-06-21T00:39:12.118Z,1012.47
2018-06-21T00:40:12.215Z,1012.45
2018-06-21T00:41:11.970Z,1012.46
2018-06-21T00:42:12.000Z,1012.49
2018-06-21T00:43:11.821Z,1012.47
2018-06-21T00:44:11.774Z,1012.52
2018-06-21T00:45:11.662Z,1012.45
2018-06-21T00:46:11.698Z,1012.45
2018-06-21T00:47:11.537Z,1012.44
2018-06-21T00:48:11.494Z,1012.42
2018-06-21T00:49:11.362Z,1012.43
2018-06-21T00:50:11.311Z,1012.42
2018-06-21T00:51:11.220Z,1012.42
2018-06-21T00:52:11.224Z,1012.42
2018-06-21T00:53:11.063Z,1012.44
2018-06-21T00:54:11.024Z,1012.43
2018-06-21T00:55:10.892Z,1012.44
2018-06-21T00:56:10.956Z,1012.43
2018-06-21T00:57:10.759Z,1012.43
2018-06-21T00:58:10.794Z,1012.40
2018-06-21T00:59:10.589Z,1012.42
2018-06-21T01:00:10.514Z,1012.40
2018-06-21T01:01:10.438Z,1012.40
2018-06-21T01:02:10.458Z,1012.40
2018-06-21T01:03:10.306Z,1012.38
2018-06-21T01:04:10.263Z,1012.37
2018-06-21T01:05:10.123Z,1012.32
2018-06-21T01:06:10.091Z,1012.37
2018-06-21T01:07:09.980Z,1012.32
2018-06-21T01:08:10.052Z,1012.34
2018-06-21T01:09:09.829Z,1012.32
2018-06-21T01:10:09.796Z,1012.29
2018-06-21T01:11:09.666Z,1012.30
2018-06-21T01:12:09.709Z,1012.27
2018-06-21T01:13:09.528Z,1012.27
2018-06-21T01:15:51.749Z,1012.25
2018-06-21T01:16:51.737Z,1012.23
2018-06-21T01:17:51.595Z,1012.22
2018-06-21T01:18:51.798Z,1012.19
2018-06-21T01:19:51.436Z,1012.22
2018-06-21T01:20:51.459Z,1012.17
2018-06-21T01:21:51.308Z,1012.14
2018-06-21T01:24:33.277Z,1012.08
2018-06-21T01:27:15.282Z,1012.00
2018-06-21T01:28:15.273Z,1011.99
2018-06-21T01:29:15.130Z,1011.94
2018-06-21T01:30:15.147Z,1011.98
2018-06-21T01:31:14.964Z,1011.98
2018-06-21T01:32:14.992Z,1011.98
2018-06-21T01:33:14.785Z,1011.93
2018-06-21T01:34:14.814Z,1011.89
2018-06-21T01:35:14.644Z,1011.85
2018-06-21T01:36:14.680Z,1011.80
2018-06-21T01:37:14.480Z,1011.82
2018-06-21T01:38:14.493Z,1011.79
2018-06-21T01:39:14.368Z,1011.81
2018-06-21T01:40:14.301Z,1011.79
2018-06-21T01:41:14.185Z,1011.77
2018-06-21T01:42:14.209Z,1011.77
2018-06-21T01:43:14.009Z,1011.79
2018-06-21T01:44:15.089Z,1011.76
2018-06-21T01:45:13.864Z,1011.73
2018-06-21T01:47:55.759Z,1011.64
2018-06-21T01:48:55.719Z,1011.62
2018-06-21T01:51:20.273Z,1011.60
2018-06-21T01:52:20.222Z,1011.57
2018-06-21T01:53:20.112Z,1011.57
2018-06-21T01:54:20.118Z,1011.53
2018-06-21T01:55:19.977Z,1011.58
2018-06-21T01:56:19.927Z,1011.61
2018-06-21T01:57:19.799Z,1011.57
2018-06-21T01:58:20.132Z,1011.58
2018-06-21T01:59:19.640Z,1011.52
2018-06-21T02:00:19.599Z,1011.53
2018-06-21T02:01:19.486Z,1011.53
2018-06-21T02:02:19.507Z,1011.53
2018-06-21T02:03:19.349Z,1011.54
2018-06-21T02:04:19.398Z,1011.53
2018-06-21T02:05:19.183Z,1011.51
2018-06-21T02:06:19.179Z,1011.46
2018-06-21T02:07:19.049Z,1011.50
2018-06-21T02:08:18.987Z,1011.47
2018-06-21T02:09:18.873Z,1011.43
2018-06-21T02:10:18.897Z,1011.45
2018-06-21T02:11:18.750Z,1011.41
2018-06-21T02:15:00.769Z,1011.33
2018-06-21T02:16:00.779Z,1011.32
2018-06-21T02:17:00.616Z,1011.35
2018-06-21T02:19:42.781Z,1011.36
2018-06-21T02:20:42.768Z,1011.36
2018-06-21T02:21:42.631Z,1011.35
2018-06-21T02:22:42.675Z,1011.34
2018-06-21T02:23:42.454Z,1011.34
2018-06-21T02:24:42.445Z,1011.35
2018-06-21T02:25:42.305Z,1011.34
2018-06-21T02:26:42.270Z,1011.35
2018-06-21T02:27:42.305Z,1011.32
2018-06-21T02:28:42.164Z,1011.34
2018-06-21T02:29:41.992Z,1011.33
2018-06-21T02:30:41.980Z,1011.34
2018-06-21T02:31:41.848Z,1011.37
2018-06-21T02:32:41.841Z,1011.36
2018-06-21T02:33:41.686Z,1011.40
2018-06-21T02:36:23.788Z,1011.40
2018-06-21T02:37:23.845Z,1011.42
2018-06-21T02:38:23.612Z,1011.40
2018-06-21T02:39:23.600Z,1011.37
2018-06-21T02:40:23.465Z,1011.39
2018-06-21T02:41:23.521Z,1011.36
2018-06-21T02:42:23.338Z,1011.43
2018-06-21T02:43:23.319Z,1011.38
2018-06-21T02:44:23.212Z,1011.37
2018-06-21T02:45:23.125Z,1011.38
2018-06-21T02:46:23.000Z,1011.39
2018-06-21T02:49:05.318Z,1011.35
2018-06-21T02:50:05.235Z,1011.34
2018-06-21T02:51:05.126Z,1011.33
2018-06-21T02:52:05.158Z,1011.32
2018-06-21T02:53:05.001Z,1011.32
2018-06-21T02:54:06.023Z,1011.32
2018-06-21T02:55:04.815Z,1011.32
2018-06-21T02:56:04.771Z,1011.33
2018-06-21T02:57:04.675Z,1011.30
2018-06-21T02:58:04.675Z,1011.28
2018-06-21T02:59:04.554Z,1011.28
2018-06-21T03:00:04.488Z,1011.24
2018-06-21T03:01:04.357Z,1011.25
2018-06-21T03:02:04.294Z,1011.33
2018-06-21T03:03:04.199Z,1011.32
2018-06-21T03:04:04.319Z,1011.28
2018-06-21T03:05:04.035Z,1011.33
2018-06-21T03:06:04.023Z,1011.33
2018-06-21T03:07:03.877Z,1011.30
2018-06-21T03:08:03.924Z,1011.32
2018-06-21T03:09:03.773Z,1011.27
2018-06-21T03:10:03.766Z,1011.30
2018-06-21T03:11:03.567Z,1011.29
2018-06-21T03:12:03.507Z,1011.30
2018-06-21T03:13:03.402Z,1011.35
2018-06-21T03:14:03.385Z,1011.32
2018-06-21T03:15:03.273Z,1011.38
2018-06-21T03:16:03.270Z,1011.37
2018-06-21T03:17:03.098Z,1011.37
2018-06-21T03:18:03.078Z,1011.37
2018-06-21T03:19:02.996Z,1011.34
2018-06-21T03:20:02.977Z,1011.32
2018-06-21T03:21:02.784Z,1011.32
2018-06-21T03:23:44.808Z,1011.22
2018-06-21T03:24:50.058Z,1011.21
2018-06-21T03:25:44.625Z,1011.21
2018-06-21T03:26:49.627Z,1011.18
2018-06-21T03:27:44.494Z,1011.17
2018-06-21T03:28:44.505Z,1011.16
2018-06-21T03:29:44.368Z,1011.14
2018-06-21T03:30:44.318Z,1011.14
2018-06-21T03:31:44.162Z,1011.13
2018-06-21T03:32:44.121Z,1011.18
2018-06-21T03:33:44.007Z,1011.12
2018-06-21T03:34:44.075Z,1011.14
2018-06-21T03:35:43.857Z,1011.15
2018-06-21T03:36:43.841Z,1011.13
2018-06-21T03:37:43.699Z,1011.14
2018-06-21T03:38:43.648Z,1011.13
2018-06-21T03:39:43.546Z,1011.15
2018-06-21T03:40:43.601Z,1011.06
2018-06-21T03:41:43.385Z,1011.07
2018-06-21T03:42:43.369Z,1011.07
2018-06-21T03:43:43.238Z,1011.08
2018-06-21T03:44:43.187Z,1011.04
2018-06-21T03:45:43.090Z,1011.07
2018-06-21T03:46:43.088Z,1011.03
2018-06-21T03:47:42.936Z,1011.01
2018-06-21T03:48:42.852Z,1011.00
2018-06-21T03:49:42.762Z,1010.99
2018-06-21T03:50:42.732Z,1010.95
2018-06-21T03:51:42.766Z,1010.94
2018-06-21T03:52:42.620Z,1010.97
2018-06-21T03:53:42.438Z,1011.01
2018-06-21T03:54:42.425Z,1011.00
2018-06-21T03:55:42.291Z,1010.97
2018-06-21T03:56:42.376Z,1011.02
2018-06-21T03:57:42.152Z,1010.99
2018-06-21T03:58:42.160Z,1011.02
2018-06-21T03:59:41.989Z,1011.06
2018-06-21T04:00:42.109Z,1011.02
2018-06-21T04:01:41.835Z,1011.02
2018-06-21T04:02:42.825Z,1011.00
2018-06-21T04:03:41.671Z,1011.01
2018-06-21T04:06:23.820Z,1011.02
2018-06-21T04:07:23.794Z,1011.02
2018-06-21T04:08:23.945Z,1011.04
2018-06-21T04:09:23.596Z,1011.01
2018-06-21T04:10:23.505Z,1011.07
2018-06-21T04:11:23.499Z,1011.01
2018-06-21T04:12:23.363Z,1011.04
2018-06-21T04:13:23.337Z,1011.05
2018-06-21T04:14:23.166Z,1011.07
2018-06-21T04:15:23.225Z,1011.12
2018-06-21T04:16:23.011Z,1011.13
2018-06-21T04:19:05.364Z,1011.22
2018-06-21T04:20:05.320Z,1011.17
2018-06-21T04:21:05.148Z,1011.13
2018-06-21T04:22:05.132Z,1011.15
2018-06-21T04:23:04.989Z,1011.04
2018-06-21T04:24:04.988Z,1011.14
2018-06-21T04:25:04.843Z,1011.14
2018-06-21T04:26:04.859Z,1011.13
2018-06-21T04:27:04.680Z,1011.10
2018-06-21T04:29:46.876Z,1011.13
2018-06-21T04:30:46.758Z,1011.14
2018-06-21T04:31:46.651Z,1011.13
2018-06-21T04:32:46.665Z,1011.12
2018-06-21T04:33:46.508Z,1011.13
2018-06-21T04:34:46.426Z,1011.10
2018-06-21T04:35:46.340Z,1011.08
2018-06-21T04:36:46.284Z,1011.11
2018-06-21T04:37:46.236Z,1011.08
2018-06-21T04:38:46.174Z,1011.11
2018-06-21T04:39:46.031Z,1011.10
2018-06-21T04:40:45.950Z,1011.12
2018-06-21T04:41:45.868Z,1011.08
2018-06-21T04:42:45.807Z,1011.03
2018-06-21T04:43:45.726Z,1010.94
2018-06-21T04:44:46.652Z,1010.99
2018-06-21T04:45:45.571Z,1011.04
2018-06-21T04:46:48.393Z,1011.01
2018-06-21T04:47:45.412Z,1011.03
2018-06-21T04:48:45.360Z,1011.04
2018-06-21T04:49:45.268Z,1010.99
2018-06-21T04:52:27.319Z,1011.02
2018-06-21T04:53:27.240Z,1011.03
2018-06-21T04:54:27.192Z,1011.07
2018-06-21T04:57:09.338Z,1011.10
2018-06-21T04:58:09.245Z,1011.12
2018-06-21T04:59:09.158Z,1011.14
2018-06-21T05:00:09.157Z,1011.13
2018-06-21T05:01:09.001Z,1011.12
2018-06-21T05:03:51.328Z,1011.11
2018-06-21T05:04:51.272Z,1011.07
2018-06-21T05:05:51.189Z,1011.13
2018-06-21T05:08:33.344Z,1011.17
2018-06-21T05:09:33.253Z,1011.16
2018-06-21T05:10:33.210Z,1011.12
2018-06-21T05:11:33.095Z,1011.16
2018-06-21T05:12:33.028Z,1011.18
2018-06-21T05:13:32.944Z,1011.16
2018-06-21T05:14:32.864Z,1011.23
2018-06-21T05:15:32.844Z,1011.16
2018-06-21T05:16:32.726Z,1011.14
2018-06-21T05:19:14.841Z,1011.14
2018-06-21T05:20:14.839Z,1011.17
2018-06-21T05:21:14.685Z,1011.10
2018-06-21T05:23:56.824Z,1011.13
2018-06-21T05:24:56.753Z,1011.15
2018-06-21T05:25:56.688Z,1011.14
2018-06-21T05:26:56.600Z,1011.13
2018-06-21T05:27:56.510Z,1011.11
2018-06-21T05:28:56.450Z,1011.13
2018-06-21T05:29:56.374Z,1011.11
2018-06-21T05:30:56.302Z,1011.13
2018-06-21T05:31:56.202Z,1011.14
2018-06-21T05:36:56.124Z,1011.23
2018-06-21T05:37:55.034Z,1011.28
2018-06-21T05:40:36.854Z,1011.12
2018-06-21T05:41:38.065Z,1011.19
2018-06-21T05:42:36.688Z,1011.15
2018-06-21T05:43:36.690Z,1011.20
2018-06-21T05:44:36.518Z,1011.17
2018-06-21T05:45:36.512Z,1011.20
2018-06-21T05:46:36.391Z,1011.26
2018-06-21T05:47:36.318Z,1011.19
2018-06-21T05:48:36.201Z,1011.24
2018-06-21T05:51:18.349Z,1011.20
2018-06-21T05:52:18.363Z,1011.23
2018-06-21T05:53:18.226Z,1011.24
2018-06-21T05:54:18.236Z,1011.19
2018-06-21T05:55:18.028Z,1011.20
2018-06-21T05:56:18.044Z,1011.19
2018-06-21T05:57:17.857Z,1011.26
2018-06-21T06:00:25.337Z,1011.25
2018-06-21T06:01:25.341Z,1011.18
2018-06-21T06:02:25.202Z,1011.21
2018-06-21T06:03:25.199Z,1011.28
2018-06-21T06:04:25.048Z,1011.27
2018-06-21T06:05:25.062Z,1011.27
2018-06-21T06:06:24.872Z,1011.25
2018-06-21T06:09:06.861Z,1011.29
2018-06-21T06:10:06.909Z,1011.36
2018-06-21T06:11:06.692Z,1011.31
2018-06-21T06:12:06.679Z,1011.36
2018-06-21T06:13:06.553Z,1011.34
2018-06-21T06:14:06.551Z,1011.32
2018-06-21T06:15:06.364Z,1011.35
2018-06-21T06:16:06.427Z,1011.33
2018-06-21T06:17:06.230Z,1011.30
2018-06-21T06:18:06.220Z,1011.37
2018-06-21T06:19:06.116Z,1011.33
2018-06-21T06:20:06.037Z,1011.38
2018-06-21T06:21:05.907Z,1011.33
2018-06-21T06:22:05.953Z,1011.33
2018-06-21T06:23:05.880Z,1011.37
2018-06-21T06:24:06.807Z,1011.42
2018-06-21T06:25:05.582Z,1011.42
2018-06-21T06:26:05.542Z,1011.49
2018-06-21T06:27:05.431Z,1011.52
2018-06-21T06:28:05.451Z,1011.57
2018-06-21T06:29:05.304Z,1011.60
2018-06-21T06:31:47.336Z,1011.54
2018-06-21T06:32:47.389Z,1011.51
2018-06-21T06:33:47.195Z,1011.51
2018-06-21T06:34:48.363Z,1011.51
2018-06-21T06:35:47.034Z,1011.51
2018-06-21T06:36:46.991Z,1011.54
2018-06-21T06:37:46.881Z,1011.56
2018-06-21T06:40:28.877Z,1011.63
2018-06-21T06:43:10.850Z,1011.68
2018-06-21T06:44:10.886Z,1011.74
2018-06-21T06:45:10.705Z,1011.69
2018-06-21T06:47:52.859Z,1011.72
2018-06-21T06:50:34.867Z,1011.80
2018-06-21T06:51:34.897Z,1011.83
2018-06-21T06:52:34.719Z,1011.86
2018-06-21T06:55:16.958Z,1011.89
2018-06-21T06:57:58.860Z,1011.87
2018-06-21T06:58:58.910Z,1011.80
2018-06-21T06:59:58.702Z,1011.85
2018-06-21T07:00:58.778Z,1011.86
2018-06-21T07:01:58.549Z,1011.92
2018-06-21T07:04:40.375Z,1011.89
2018-06-21T07:05:40.346Z,1011.94
2018-06-21T07:06:40.225Z,1011.93
2018-06-21T07:07:40.319Z,1011.89
2018-06-21T07:11:37.029Z,1011.90
2018-06-21T07:12:37.104Z,1011.92
2018-06-21T07:15:18.863Z,1011.95
2018-06-21T07:18:00.912Z,1012.08
2018-06-21T07:19:00.884Z,1012.13
2018-06-21T07:20:00.700Z,1012.10
2018-06-21T07:22:42.870Z,1012.09
2018-06-21T07:25:07.366Z,1012.15
2018-06-21T07:26:07.367Z,1012.16
2018-06-21T07:27:07.246Z,1012.18
2018-06-21T07:28:07.195Z,1012.21
2018-06-21T07:29:07.048Z,1012.26
2018-06-21T07:31:49.364Z,1012.29
2018-06-21T07:32:49.443Z,1012.31
2018-06-21T07:33:49.227Z,1012.40
2018-06-21T07:34:49.206Z,1012.41
2018-06-21T07:35:49.057Z,1012.37
2018-06-21T07:36:49.065Z,1012.34
2018-06-21T07:37:48.903Z,1012.44
2018-06-21T07:40:30.919Z,1012.34
2018-06-21T07:41:30.830Z,1012.31
2018-06-21T07:43:40.475Z,1012.41
2018-06-21T07:44:40.254Z,1012.34
2018-06-21T07:45:41.330Z,1012.42
2018-06-21T08:00:10.617Z,1012.91
2018-06-21T08:01:10.579Z,1012.92
2018-06-21T08:02:10.403Z,1012.98
2018-06-21T08:03:10.326Z,1012.97
2018-06-21T08:04:10.262Z,1013.21
2018-06-21T08:05:10.244Z,1013.16
2018-06-21T08:06:10.093Z,1013.23
2018-06-21T08:08:52.399Z,1013.16
2018-06-21T08:11:34.402Z,1013.13
2018-06-21T08:12:34.427Z,1013.15
2018-06-21T08:13:34.266Z,1013.12
2018-06-21T08:14:35.306Z,1013.15
2018-06-21T08:15:34.131Z,1013.10
2018-06-21T08:16:34.024Z,1013.13
2018-06-21T08:17:33.919Z,1013.09
2018-06-21T08:18:34.892Z,1013.13
2018-06-21T08:19:33.797Z,1013.21
2018-06-21T08:20:33.735Z,1013.18
2018-06-21T08:21:33.602Z,1013.24
2018-06-21T08:22:33.534Z,1013.28
2018-06-21T08:23:33.502Z,1013.32
2018-06-21T08:24:34.428Z,1013.32
2018-06-21T08:25:33.334Z,1013.28
2018-06-21T08:26:33.269Z,1013.31
2018-06-21T08:27:33.138Z,1013.34
2018-06-21T08:28:33.176Z,1013.42
2018-06-21T08:29:33.008Z,1013.43
2018-06-21T08:30:33.013Z,1013.40
2018-06-21T08:31:32.819Z,1013.43
2018-06-21T08:34:14.881Z,1013.55
2018-06-21T08:35:14.942Z,1013.45
2018-06-21T08:36:14.758Z,1013.69
2018-06-21T08:38:56.924Z,1013.62
2018-06-21T08:39:56.936Z,1013.93
2018-06-21T08:40:56.851Z,1013.88
2018-06-21T08:41:56.683Z,1014.13
2018-06-21T08:42:56.573Z,1014.10
2018-06-21T08:43:56.648Z,1013.92
2018-06-21T08:44:56.499Z,1013.82
2018-06-21T08:45:56.473Z,1013.87
2018-06-21T08:46:56.303Z,1013.97
2018-06-21T08:47:56.417Z,1013.98
2018-06-21T08:48:56.175Z,1014.30
2018-06-21T08:49:56.195Z,1014.04
2018-06-21T08:50:56.040Z,1013.83
2018-06-21T08:51:55.982Z,1013.86
2018-06-21T08:52:55.829Z,1014.04
2018-06-21T08:53:56.769Z,1013.84
2018-06-21T08:54:55.843Z,1013.85
2018-06-21T08:55:58.147Z,1014.19
2018-06-21T08:56:55.644Z,1013.84
2018-06-21T08:57:55.476Z,1014.37
2018-06-21T08:58:55.417Z,1014.43
2018-06-21T09:01:37.438Z,1014.54
2018-06-21T09:04:19.394Z,1014.03
2018-06-21T09:05:19.373Z,1013.95
2018-06-21T09:06:19.284Z,1014.05
2018-06-21T09:07:19.209Z,1014.13
2018-06-21T09:08:19.127Z,1014.24
2018-06-21T09:11:01.406Z,1014.67
2018-06-21T09:12:02.383Z,1014.72
2018-06-21T09:13:01.289Z,1014.65
2018-06-21T09:15:43.414Z,1014.70
2018-06-21T09:16:43.393Z,1014.72
2018-06-21T09:17:43.298Z,1014.70
2018-06-21T09:18:43.188Z,1014.75
2018-06-21T09:19:43.104Z,1014.28
2018-06-21T09:22:25.428Z,1014.83
2018-06-21T09:23:25.359Z,1014.79
2018-06-21T09:24:25.261Z,1014.85
2018-06-21T09:27:07.434Z,1014.51
2018-06-21T09:28:08.388Z,1014.40
2018-06-21T09:29:07.262Z,1014.48
2018-06-21T09:31:49.421Z,1014.41
2018-06-21T09:32:49.347Z,1014.40
2018-06-21T09:33:49.297Z,1014.36
2018-06-21T09:34:49.205Z,1014.88
2018-06-21T09:35:49.134Z,1014.35
2018-06-21T09:38:31.434Z,1014.49
2018-06-21T09:39:31.338Z,1014.43
2018-06-21T09:40:31.264Z,1014.45
2018-06-21T09:41:31.199Z,1014.41
2018-06-21T09:42:31.149Z,1014.46
2018-06-21T09:43:31.095Z,1015.18
2018-06-21T09:44:30.989Z,1014.92
2018-06-21T09:47:12.927Z,1014.87
2018-06-21T09:48:12.879Z,1014.94
2018-06-21T09:49:12.792Z,1014.81
2018-06-21T09:51:54.932Z,1014.67
2018-06-21T09:54:36.945Z,1015.51
2018-06-21T09:57:18.910Z,1015.45
2018-06-21T09:58:18.860Z,1014.96
2018-06-21T09:59:18.806Z,1015.22
2018-06-21T10:00:18.705Z,1015.23
2018-06-21T10:01:18.629Z,1014.88
2018-06-21T10:02:18.590Z,1014.79
2018-06-21T10:03:18.495Z,1014.54
2018-06-21T10:04:18.426Z,1014.65
2018-06-21T10:05:18.393Z,1014.68
2018-06-21T10:06:18.272Z,1014.64
2018-06-21T10:07:18.198Z,1014.74
2018-06-21T10:08:18.153Z,1015.63
2018-06-21T10:09:18.068Z,1015.63
2018-06-21T10:10:18.005Z,1015.57
2018-06-21T10:11:17.934Z,1015.50
2018-06-21T10:13:59.932Z,1015.56
2018-06-21T10:14:59.927Z,1015.51
2018-06-21T10:15:59.799Z,1015.45
2018-06-21T10:16:59.841Z,1015.48
2018-06-21T10:17:59.646Z,1015.71
2018-06-21T10:18:59.616Z,1014.78
2018-06-21T10:19:59.502Z,1014.83
2018-06-21T10:22:41.453Z,1014.70
2018-06-21T10:23:41.416Z,1015.64
2018-06-21T10:24:41.281Z,1014.91
2018-06-21T10:25:41.332Z,1015.61
2018-06-21T10:26:41.217Z,1015.52
2018-06-21T10:27:41.150Z,1015.42
2018-06-21T10:28:41.005Z,1015.59
2018-06-21T10:29:41.056Z,1015.82
2018-06-21T10:30:40.871Z,1015.24
2018-06-21T10:31:40.834Z,1015.84
2018-06-21T10:32:40.742Z,1014.91
2018-06-21T10:33:40.665Z,1014.93
2018-06-21T10:34:40.582Z,1014.98
2018-06-21T10:35:40.571Z,1015.02
2018-06-21T10:36:40.462Z,1015.80
2018-06-21T10:37:40.429Z,1015.65
2018-06-21T10:38:40.342Z,1015.75
2018-06-21T10:39:42.355Z,1015.70
2018-06-21T10:40:40.156Z,1015.90
2018-06-21T10:41:41.164Z,1015.92
2018-06-21T10:42:40.134Z,1015.84
2018-06-21T10:45:21.938Z,1016.12
2018-06-21T10:48:03.994Z,1015.99
2018-06-21T10:49:03.984Z,1016.01
2018-06-21T10:50:03.799Z,1015.53
2018-06-21T10:51:03.828Z,1015.95
2018-06-21T10:52:03.673Z,1015.37
2018-06-21T10:53:03.642Z,1016.00
2018-06-21T10:54:03.564Z,1015.95
2018-06-21T10:55:03.488Z,1015.91
2018-06-21T10:56:03.402Z,1015.32
2018-06-21T10:57:03.350Z,1015.76
2018-06-21T10:58:03.234Z,1015.38
2018-06-21T10:59:03.310Z,1015.25
2018-06-21T11:00:03.121Z,1015.44
2018-06-21T11:01:03.162Z,1016.03
2018-06-21T11:02:02.968Z,1015.35
2018-06-21T11:03:03.020Z,1015.89
2018-06-21T11:04:02.835Z,1015.55
2018-06-21T11:05:02.774Z,1016.20
2018-06-21T11:06:02.692Z,1016.02
2018-06-21T11:07:02.693Z,1016.02
2018-06-21T11:08:02.613Z,1015.76
2018-06-21T11:10:44.450Z,1015.35
2018-06-21T11:11:44.493Z,1015.41
2018-06-21T11:12:44.345Z,1015.44
2018-06-21T11:13:44.349Z,1016.18
2018-06-21T11:14:44.193Z,1016.13
2018-06-21T11:17:26.449Z,1016.13
2018-06-21T11:18:26.427Z,1016.19
2018-06-21T11:19:26.305Z,1016.33
2018-06-21T11:22:08.466Z,1016.36
2018-06-21T11:24:50.483Z,1016.29
2018-06-21T11:25:50.441Z,1015.67
2018-06-21T11:26:50.417Z,1015.88
2018-06-21T11:29:32.499Z,1016.28
2018-06-21T11:30:32.445Z,1016.51
2018-06-21T11:31:32.320Z,1016.37
2018-06-21T11:32:32.250Z,1016.41
2018-06-21T11:33:32.177Z,1016.37
2018-06-21T11:34:32.136Z,1015.77
2018-06-21T11:35:32.032Z,1016.51
2018-06-21T11:36:32.063Z,1016.50
2018-06-21T11:37:31.909Z,1016.46
2018-06-21T11:38:31.885Z,1016.47
2018-06-21T11:39:31.766Z,1016.54
2018-06-21T11:40:32.774Z,1016.33
2018-06-21T11:41:31.660Z,1016.34
2018-06-21T11:42:31.613Z,1015.84
2018-06-21T11:43:31.484Z,1016.13
2018-06-21T11:44:31.545Z,1016.06
2018-06-21T11:45:31.365Z,1015.97
2018-06-21T11:46:31.327Z,1015.84
2018-06-21T11:47:31.229Z,1015.95
2018-06-21T11:48:31.245Z,1016.01
2018-06-21T11:49:31.076Z,1015.95
2018-06-21T11:50:31.087Z,1016.00
2018-06-21T11:51:30.949Z,1015.97
2018-06-21T11:54:12.991Z,1015.99
2018-06-21T11:56:55.191Z,1015.97
2018-06-21T11:57:54.944Z,1015.89
2018-06-21T11:58:54.833Z,1016.01
2018-06-21T11:59:54.846Z,1016.07
2018-06-21T12:00:54.723Z,1016.00
2018-06-21T12:03:36.975Z,1015.96
2018-06-21T12:04:36.964Z,1016.07
2018-06-21T12:05:36.855Z,1015.99
2018-06-21T12:06:36.799Z,1015.96
2018-06-21T12:07:36.751Z,1016.12
2018-06-21T12:10:19.071Z,1016.13
2018-06-21T12:11:19.072Z,1016.07
2018-06-21T12:12:18.819Z,1016.21
2018-06-21T12:13:18.757Z,1016.15
2018-06-21T12:14:18.668Z,1016.00
2018-06-21T12:17:01.014Z,1015.92
2018-06-21T12:19:42.978Z,1016.05
2018-06-21T12:22:25.005Z,1016.19
2018-06-21T12:25:06.972Z,1016.06
2018-06-21T12:26:06.981Z,1015.97
2018-06-21T12:27:06.844Z,1016.12
2018-06-21T12:28:06.741Z,1016.08
2018-06-21T12:29:06.666Z,1016.27
2018-06-21T12:30:06.598Z,1016.31
2018-06-21T12:31:06.507Z,1016.32
2018-06-21T12:32:07.496Z,1016.30
2018-06-21T12:33:06.372Z,1016.30
2018-06-21T12:34:06.302Z,1016.26
2018-06-21T12:35:06.202Z,1016.40
2018-06-21T12:37:48.519Z,1016.45
2018-06-21T12:38:48.421Z,1016.45
2018-06-21T12:39:48.337Z,1016.45
2018-06-21T12:40:48.261Z,1016.37
2018-06-21T12:41:48.175Z,1016.45
2018-06-21T12:42:48.143Z,1016.43
2018-06-21T12:43:48.062Z,1016.40
2018-06-21T12:44:47.948Z,1016.41
2018-06-21T12:45:47.863Z,1016.41
2018-06-21T12:48:30.188Z,1016.44
2018-06-21T12:49:29.993Z,1016.42
2018-06-21T12:50:29.856Z,1016.36
2018-06-21T12:51:29.996Z,1016.44
2018-06-21T12:52:30.058Z,1016.56
2018-06-21T12:53:29.615Z,1016.46
2018-06-21T12:54:29.544Z,1016.44
2018-06-21T12:55:30.466Z,1016.51
2018-06-21T12:56:29.476Z,1016.49
2018-06-21T12:57:29.357Z,1016.51
2018-06-21T12:58:29.285Z,1016.54
2018-06-21T13:01:16.141Z,1016.45
2018-06-21T13:03:58.018Z,1016.67
2018-06-21T13:04:58.958Z,1016.70
2018-06-21T13:05:57.853Z,1016.71
2018-06-21T13:06:57.766Z,1016.67
2018-06-21T13:07:57.683Z,1016.66
2018-06-21T13:08:57.641Z,1016.73
2018-06-21T13:09:57.530Z,1016.72
2018-06-21T13:10:57.481Z,1016.79
2018-06-21T13:11:57.367Z,1016.74
2018-06-21T13:12:57.292Z,1016.71
2018-06-21T13:13:57.246Z,1016.77
2018-06-21T13:14:57.158Z,1016.65
2018-06-21T13:15:57.086Z,1016.71
2018-06-21T13:16:58.995Z,1016.75
2018-06-21T13:17:56.905Z,1016.73
2018-06-21T13:18:56.840Z,1016.80
2018-06-21T13:19:56.763Z,1016.83
2018-06-21T13:20:56.710Z,1017.03
2018-06-21T13:21:56.688Z,1016.80
2018-06-21T13:22:56.542Z,1016.76
2018-06-21T13:23:56.461Z,1016.76
2018-06-21T13:24:56.685Z,1016.82
2018-06-21T13:25:56.450Z,1016.80
2018-06-21T13:26:57.246Z,1016.83
2018-06-21T13:27:56.148Z,1016.79
2018-06-21T13:28:56.076Z,1016.84
2018-06-21T13:29:55.986Z,1016.87
2018-06-21T13:30:56.932Z,1016.85
2018-06-21T13:31:55.842Z,1016.85
2018-06-21T13:32:55.769Z,1016.83
2018-06-21T13:33:55.676Z,1016.90
2018-06-21T13:36:38.088Z,1016.96
2018-06-21T13:37:37.448Z,1016.92
2018-06-21T13:38:37.353Z,1016.92
2018-06-21T13:39:37.372Z,1017.09
2018-06-21T13:40:37.213Z,1017.11
2018-06-21T13:43:19.554Z,1017.02
2018-06-21T13:44:19.424Z,1017.04
2018-06-21T13:45:19.377Z,1016.96
2018-06-21T13:46:19.317Z,1017.07
2018-06-21T13:47:19.225Z,1017.08
2018-06-21T13:48:19.222Z,1017.05
2018-06-21T13:49:19.046Z,1017.11
2018-06-21T13:50:18.998Z,1017.08
2018-06-21T13:51:18.877Z,1017.15
2018-06-21T13:52:19.914Z,1017.14
2018-06-21T13:53:18.807Z,1017.19
2018-06-21T13:54:18.649Z,1017.28
2018-06-21T13:55:18.600Z,1017.15
2018-06-21T13:58:00.554Z,1017.17
2018-06-21T13:59:00.445Z,1017.21
2018-06-21T14:00:00.370Z,1017.24
2018-06-21T14:01:00.350Z,1017.35
2018-06-21T14:02:00.221Z,1017.22
2018-06-21T14:03:00.323Z,1017.18
2018-06-21T14:04:00.180Z,1017.25
2018-06-21T14:05:00.114Z,1017.22
2018-06-21T14:05:59.893Z,1017.12
2018-06-21T14:08:42.140Z,1017.30
2018-06-21T14:09:42.004Z,1017.26
2018-06-21T14:10:41.883Z,1017.20
2018-06-21T14:11:41.900Z,1017.33
2018-06-21T14:12:41.706Z,1017.27
2018-06-21T14:13:41.745Z,1017.33
2018-06-21T14:14:41.568Z,1017.33
2018-06-21T14:17:23.518Z,1017.23
2018-06-21T14:20:17.090Z,1017.36
2018-06-21T14:21:16.993Z,1017.25
2018-06-21T14:22:16.862Z,1017.35
2018-06-21T14:23:16.903Z,1017.39
2018-06-21T14:24:16.703Z,1017.35
2018-06-21T14:25:17.663Z,1017.34
2018-06-21T14:26:16.544Z,1017.34
2018-06-21T14:28:58.515Z,1017.37
2018-06-21T14:29:58.573Z,1017.31
2018-06-21T14:30:58.467Z,1017.33
2018-06-21T14:31:58.330Z,1017.41
2018-06-21T14:32:58.217Z,1017.41
2018-06-21T14:33:58.259Z,1017.40
2018-06-21T14:34:58.042Z,1017.44
2018-06-21T14:35:59.105Z,1017.51
2018-06-21T14:36:57.881Z,1017.38
2018-06-21T14:37:57.845Z,1017.47
2018-06-21T14:38:57.735Z,1017.48
2018-06-21T14:39:57.765Z,1017.45
2018-06-21T14:40:57.643Z,1017.37
2018-06-21T14:41:57.567Z,1017.38
2018-06-21T14:42:57.451Z,1017.46
2018-06-21T14:43:57.471Z,1017.48
2018-06-21T14:44:57.272Z,1017.48
2018-06-21T14:45:57.335Z,1017.48
2018-06-21T14:46:57.127Z,1017.56
2018-06-21T14:47:57.114Z,1017.59
2018-06-21T14:48:57.074Z,1017.61
2018-06-21T14:49:57.004Z,1017.62
2018-06-21T14:50:56.829Z,1017.62
2018-06-21T14:51:56.840Z,1017.63
2018-06-21T14:52:56.651Z,1017.61
2018-06-21T14:55:38.531Z,1017.62
2018-06-21T14:56:38.548Z,1017.64
2018-06-21T14:57:38.373Z,1017.69
2018-06-21T14:58:38.436Z,1017.63